sensor_id;sensor_type;location;lat;lon;timestamp;pressure;altitude;pressure_sealevel;temperature;humidity
52719;BME280;38616;42.140;24.760;2024-02-16T00:01:03;100199.31;;;8.64;nan
52719;BME280;38616;42.140;24.760;2024-02-16T00:03:29;100198.59;;;8.74;nan
52719;BME280;38616;42.140;24.760;2024-02-16T00:05:54;100200.56;;;8.79;nan
52719;BME280;38616;42.140;24.760;2024-02-16T00:08:20;100204.91;;;8.57;nan
52719;BME280;38616;42.140;24.760;2024-02-16T00:10:47;100197.81;;;8.34;nan
52719;BME280;38616;42.140;24.760;2024-02-16T00:13:13;100202.69;;;8.54;nan
52719;BME280;38616;42.140;24.760;2024-02-16T00:15:39;100200.09;;;8.65;nan
52719;BME280;38616;42.140;24.760;2024-02-16T00:18:05;100199.50;;;8.80;nan
52719;BME280;38616;42.140;24.760;2024-02-16T00:20:31;100198.97;;;8.83;nan
52719;BME280;38616;42.140;24.760;2024-02-16T00:22:57;100192.72;;;8.82;nan
52719;BME280;38616;42.140;24.760;2024-02-16T00:25:23;100197.66;;;8.85;nan
52719;BME280;38616;42.140;24.760;2024-02-16T00:27:49;100187.97;;;8.67;nan
52719;BME280;38616;42.140;24.760;2024-02-16T00:30:18;100196.22;;;8.16;nan
52719;BME280;38616;42.140;24.760;2024-02-16T00:32:44;100195.88;;;8.30;nan
52719;BME280;38616;42.140;24.760;2024-02-16T00:35:16;100195.63;;;7.92;nan
52719;BME280;38616;42.140;24.760;2024-02-16T00:37:43;100198.66;;;7.78;nan
52719;BME280;38616;42.140;24.760;2024-02-16T00:40:09;100194.03;;;7.96;nan
52719;BME280;38616;42.140;24.760;2024-02-16T00:42:35;100193.22;;;7.95;nan
52719;BME280;38616;42.140;24.760;2024-02-16T00:45:00;100190.84;;;7.82;nan
52719;BME280;38616;42.140;24.760;2024-02-16T00:47:26;100197.50;;;8.31;nan
52719;BME280;38616;42.140;24.760;2024-02-16T00:49:55;100188.91;;;8.56;nan
52719;BME280;38616;42.140;24.760;2024-02-16T00:52:22;100183.75;;;8.77;nan
52719;BME280;38616;42.140;24.760;2024-02-16T00:54:48;100191.56;;;8.51;nan
52719;BME280;38616;42.140;24.760;2024-02-16T00:57:14;100194.34;;;8.56;nan
52719;BME280;38616;42.140;24.760;2024-02-16T00:59:42;100186.63;;;8.48;nan
52719;BME280;38616;42.140;24.760;2024-02-16T01:02:08;100194.66;;;8.20;nan
52719;BME280;38616;42.140;24.760;2024-02-16T01:04:35;100192.25;;;7.84;nan
52719;BME280;38616;42.140;24.760;2024-02-16T01:07:01;100185.03;;;7.90;nan
52719;BME280;38616;42.140;24.760;2024-02-16T01:09:26;100185.28;;;7.89;nan
52719;BME280;38616;42.140;24.760;2024-02-16T01:11:52;100177.06;;;8.01;nan
52719;BME280;38616;42.140;24.760;2024-02-16T01:14:18;100182.28;;;8.07;nan
52719;BME280;38616;42.140;24.760;2024-02-16T01:16:43;100185.59;;;7.92;nan
52719;BME280;38616;42.140;24.760;2024-02-16T01:19:09;100190.22;;;7.92;nan
52719;BME280;38616;42.140;24.760;2024-02-16T01:21:35;100184.75;;;8.09;nan
52719;BME280;38616;42.140;24.760;2024-02-16T01:24:00;100179.31;;;7.69;nan
52719;BME280;38616;42.140;24.760;2024-02-16T01:26:28;100183.53;;;7.99;nan
52719;BME280;38616;42.140;24.760;2024-02-16T01:28:54;100180.06;;;8.04;nan
52719;BME280;38616;42.140;24.760;2024-02-16T01:31:20;100186.91;;;7.73;nan
52719;BME280;38616;42.140;24.760;2024-02-16T01:33:45;100182.91;;;7.92;nan
52719;BME280;38616;42.140;24.760;2024-02-16T01:36:11;100176.94;;;8.12;nan
52719;BME280;38616;42.140;24.760;2024-02-16T01:38:36;100177.66;;;8.25;nan
52719;BME280;38616;42.140;24.760;2024-02-16T01:41:02;100183.78;;;7.98;nan
52719;BME280;38616;42.140;24.760;2024-02-16T01:43:28;100183.78;;;7.98;nan
52719;BME280;38616;42.140;24.760;2024-02-16T01:45:53;100182.19;;;8.41;nan
52719;BME280;38616;42.140;24.760;2024-02-16T01:48:19;100188.84;;;8.11;nan
52719;BME280;38616;42.140;24.760;2024-02-16T01:50:45;100189.75;;;8.17;nan
52719;BME280;38616;42.140;24.760;2024-02-16T01:53:12;100185.75;;;8.03;nan
52719;BME280;38616;42.140;24.760;2024-02-16T01:55:38;100179.81;;;7.83;nan
52719;BME280;38616;42.140;24.760;2024-02-16T01:58:04;100174.00;;;7.97;nan
52719;BME280;38616;42.140;24.760;2024-02-16T02:00:30;100185.91;;;7.96;nan
52719;BME280;38616;42.140;24.760;2024-02-16T02:02:55;100194.81;;;8.13;nan
52719;BME280;38616;42.140;24.760;2024-02-16T02:05:23;100186.25;;;7.99;nan
52719;BME280;38616;42.140;24.760;2024-02-16T02:07:48;100193.47;;;7.94;nan
52719;BME280;38616;42.140;24.760;2024-02-16T02:10:14;100188.88;;;7.94;nan
52719;BME280;38616;42.140;24.760;2024-02-16T02:12:41;100179.44;;;7.97;nan
52719;BME280;38616;42.140;24.760;2024-02-16T02:15:08;100184.19;;;8.07;nan
52719;BME280;38616;42.140;24.760;2024-02-16T02:17:34;100184.34;;;8.00;nan
52719;BME280;38616;42.140;24.760;2024-02-16T02:20:00;100176.22;;;8.17;nan
52719;BME280;38616;42.140;24.760;2024-02-16T02:22:26;100182.50;;;8.45;nan
52719;BME280;38616;42.140;24.760;2024-02-16T02:24:52;100184.94;;;8.64;nan
52719;BME280;38616;42.140;24.760;2024-02-16T02:27:20;100178.34;;;8.37;nan
52719;BME280;38616;42.140;24.760;2024-02-16T02:29:46;100169.09;;;8.33;nan
52719;BME280;38616;42.140;24.760;2024-02-16T02:32:12;100176.72;;;8.14;nan
52719;BME280;38616;42.140;24.760;2024-02-16T02:34:40;100169.22;;;8.21;nan
52719;BME280;38616;42.140;24.760;2024-02-16T02:37:06;100170.38;;;8.25;nan
52719;BME280;38616;42.140;24.760;2024-02-16T02:39:32;100159.91;;;8.12;nan
52719;BME280;38616;42.140;24.760;2024-02-16T02:41:58;100171.97;;;8.04;nan
52719;BME280;38616;42.140;24.760;2024-02-16T02:44:24;100167.03;;;8.18;nan
52719;BME280;38616;42.140;24.760;2024-02-16T02:46:50;100160.50;;;7.97;nan
52719;BME280;38616;42.140;24.760;2024-02-16T02:49:16;100170.34;;;7.86;nan
52719;BME280;38616;42.140;24.760;2024-02-16T02:51:42;100171.03;;;7.59;nan
52719;BME280;38616;42.140;24.760;2024-02-16T02:54:08;100168.56;;;7.92;nan
52719;BME280;38616;42.140;24.760;2024-02-16T02:56:33;100165.38;;;7.95;nan
52719;BME280;38616;42.140;24.760;2024-02-16T02:58:59;100166.88;;;8.08;nan
52719;BME280;38616;42.140;24.760;2024-02-16T03:01:24;100157.84;;;8.19;nan
52719;BME280;38616;42.140;24.760;2024-02-16T03:03:50;100166.25;;;8.01;nan
52719;BME280;38616;42.140;24.760;2024-02-16T03:06:19;100164.44;;;7.89;nan
52719;BME280;38616;42.140;24.760;2024-02-16T03:08:45;100171.97;;;8.04;nan
52719;BME280;38616;42.140;24.760;2024-02-16T03:11:11;100162.13;;;7.98;nan
52719;BME280;38616;42.140;24.760;2024-02-16T03:13:36;100175.03;;;7.91;nan
52719;BME280;38616;42.140;24.760;2024-02-16T03:16:02;100176.69;;;7.92;nan
52719;BME280;38616;42.140;24.760;2024-02-16T03:18:32;100172.97;;;7.81;nan
52719;BME280;38616;42.140;24.760;2024-02-16T03:20:58;100170.38;;;7.69;nan
52719;BME280;38616;42.140;24.760;2024-02-16T03:23:24;100179.22;;;7.81;nan
52719;BME280;38616;42.140;24.760;2024-02-16T03:25:50;100180.06;;;7.65;nan
52719;BME280;38616;42.140;24.760;2024-02-16T03:28:16;100183.97;;;7.57;nan
52719;BME280;38616;42.140;24.760;2024-02-16T03:30:44;100183.47;;;7.60;nan
52719;BME280;38616;42.140;24.760;2024-02-16T03:33:10;100180.88;;;7.31;nan
52719;BME280;38616;42.140;24.760;2024-02-16T03:35:35;100183.63;;;7.19;nan
52719;BME280;38616;42.140;24.760;2024-02-16T03:38:04;100189.13;;;7.24;nan
52719;BME280;38616;42.140;24.760;2024-02-16T03:40:30;100189.41;;;7.11;nan
52719;BME280;38616;42.140;24.760;2024-02-16T03:42:55;100191.50;;;7.21;nan
52719;BME280;38616;42.140;24.760;2024-02-16T03:45:22;100191.69;;;7.31;nan
52719;BME280;38616;42.140;24.760;2024-02-16T03:47:48;100203.50;;;7.13;nan
52719;BME280;38616;42.140;24.760;2024-02-16T03:50:20;100199.25;;;7.17;nan
52719;BME280;38616;42.140;24.760;2024-02-16T03:52:47;100204.75;;;7.22;nan
52719;BME280;38616;42.140;24.760;2024-02-16T03:55:13;100199.03;;;7.36;nan
52719;BME280;38616;42.140;24.760;2024-02-16T03:57:39;100205.38;;;7.42;nan
52719;BME280;38616;42.140;24.760;2024-02-16T04:00:06;100193.97;;;7.57;nan
52719;BME280;38616;42.140;24.760;2024-02-16T04:02:32;100199.72;;;7.60;nan
52719;BME280;38616;42.140;24.760;2024-02-16T04:04:57;100197.91;;;7.83;nan
52719;BME280;38616;42.140;24.760;2024-02-16T04:07:23;100195.63;;;7.58;nan
52719;BME280;38616;42.140;24.760;2024-02-16T04:09:49;100201.91;;;7.46;nan
52719;BME280;38616;42.140;24.760;2024-02-16T04:12:14;100200.13;;;7.69;nan
52719;BME280;38616;42.140;24.760;2024-02-16T04:14:40;100199.72;;;7.77;nan
52719;BME280;38616;42.140;24.760;2024-02-16T04:17:07;100202.56;;;8.05;nan
52719;BME280;38616;42.140;24.760;2024-02-16T04:19:33;100196.22;;;7.99;nan
52719;BME280;38616;42.140;24.760;2024-02-16T04:21:58;100196.41;;;7.92;nan
52719;BME280;38616;42.140;24.760;2024-02-16T04:24:24;100205.28;;;7.88;nan
52719;BME280;38616;42.140;24.760;2024-02-16T04:26:49;100202.91;;;7.91;nan
52719;BME280;38616;42.140;24.760;2024-02-16T04:29:15;100208.47;;;7.50;nan
52719;BME280;38616;42.140;24.760;2024-02-16T04:31:42;100211.75;;;7.35;nan
52719;BME280;38616;42.140;24.760;2024-02-16T04:34:10;100213.31;;;7.48;nan
52719;BME280;38616;42.140;24.760;2024-02-16T04:36:35;100218.56;;;7.09;nan
52719;BME280;38616;42.140;24.760;2024-02-16T04:39:01;100222.97;;;7.27;nan
52719;BME280;38616;42.140;24.760;2024-02-16T04:41:26;100225.03;;;7.08;nan
52719;BME280;38616;42.140;24.760;2024-02-16T04:43:52;100225.03;;;6.79;nan
52719;BME280;38616;42.140;24.760;2024-02-16T04:46:19;100220.97;;;6.64;nan
52719;BME280;38616;42.140;24.760;2024-02-16T04:48:45;100219.94;;;6.94;nan
52719;BME280;38616;42.140;24.760;2024-02-16T04:51:11;100219.16;;;6.70;nan
52719;BME280;38616;42.140;24.760;2024-02-16T04:53:37;100220.00;;;6.71;nan
52719;BME280;38616;42.140;24.760;2024-02-16T04:56:02;100223.69;;;6.53;nan
52719;BME280;38616;42.140;24.760;2024-02-16T04:58:28;100235.19;;;6.48;nan
52719;BME280;38616;42.140;24.760;2024-02-16T05:00:53;100230.72;;;5.70;nan
52719;BME280;38616;42.140;24.760;2024-02-16T05:03:19;100236.91;;;5.16;nan
52719;BME280;38616;42.140;24.760;2024-02-16T05:05:47;100241.22;;;4.87;nan
52719;BME280;38616;42.140;24.760;2024-02-16T05:08:14;100242.34;;;4.98;nan
52719;BME280;38616;42.140;24.760;2024-02-16T05:10:40;100237.81;;;5.41;nan
52719;BME280;38616;42.140;24.760;2024-02-16T05:13:05;100237.06;;;6.00;nan
52719;BME280;38616;42.140;24.760;2024-02-16T05:15:31;100245.88;;;6.19;nan
52719;BME280;38616;42.140;24.760;2024-02-16T05:17:57;100239.69;;;6.18;nan
52719;BME280;38616;42.140;24.760;2024-02-16T05:20:23;100237.91;;;6.12;nan
52719;BME280;38616;42.140;24.760;2024-02-16T05:22:49;100243.56;;;6.23;nan
52719;BME280;38616;42.140;24.760;2024-02-16T05:25:18;100239.91;;;6.29;nan
52719;BME280;38616;42.140;24.760;2024-02-16T05:27:44;100237.94;;;6.00;nan
52719;BME280;38616;42.140;24.760;2024-02-16T05:30:11;100251.47;;;5.82;nan
52719;BME280;38616;42.140;24.760;2024-02-16T05:32:38;100246.81;;;6.01;nan
52719;BME280;38616;42.140;24.760;2024-02-16T05:35:05;100246.00;;;6.12;nan
52719;BME280;38616;42.140;24.760;2024-02-16T05:37:44;100245.06;;;6.18;nan
52719;BME280;38616;42.140;24.760;2024-02-16T05:40:13;100253.00;;;5.77;nan
52719;BME280;38616;42.140;24.760;2024-02-16T05:42:47;100259.72;;;5.14;nan
52719;BME280;38616;42.140;24.760;2024-02-16T05:45:14;100265.63;;;5.23;nan
52719;BME280;38616;42.140;24.760;2024-02-16T05:47:40;100269.69;;;5.44;nan
52719;BME280;38616;42.140;24.760;2024-02-16T05:50:06;100277.38;;;5.10;nan
52719;BME280;38616;42.140;24.760;2024-02-16T05:52:32;100265.44;;;5.79;nan
52719;BME280;38616;42.140;24.760;2024-02-16T05:54:59;100264.19;;;6.41;nan
52719;BME280;38616;42.140;24.760;2024-02-16T05:57:25;100265.56;;;6.55;nan
52719;BME280;38616;42.140;24.760;2024-02-16T05:59:50;100265.31;;;6.69;nan
52719;BME280;38616;42.140;24.760;2024-02-16T06:02:17;100266.59;;;6.78;nan
52719;BME280;38616;42.140;24.760;2024-02-16T06:04:43;100263.91;;;7.07;nan
52719;BME280;38616;42.140;24.760;2024-02-16T06:07:08;100268.44;;;6.89;nan
52719;BME280;38616;42.140;24.760;2024-02-16T06:09:34;100259.44;;;6.72;nan
52719;BME280;38616;42.140;24.760;2024-02-16T06:12:03;100261.72;;;6.92;nan
52719;BME280;38616;42.140;24.760;2024-02-16T06:14:33;100270.94;;;7.20;nan
52719;BME280;38616;42.140;24.760;2024-02-16T06:16:59;100270.78;;;7.27;nan
52719;BME280;38616;42.140;24.760;2024-02-16T06:19:26;100275.88;;;7.11;nan
52719;BME280;38616;42.140;24.760;2024-02-16T06:21:53;100266.47;;;7.43;nan
52719;BME280;38616;42.140;24.760;2024-02-16T06:24:22;100270.94;;;7.66;nan
52719;BME280;38616;42.140;24.760;2024-02-16T06:26:48;100277.53;;;7.41;nan
52719;BME280;38616;42.140;24.760;2024-02-16T06:29:14;100276.44;;;7.13;nan
52719;BME280;38616;42.140;24.760;2024-02-16T06:31:39;100278.00;;;7.38;nan
52719;BME280;38616;42.140;24.760;2024-02-16T06:34:05;100283.97;;;7.23;nan
52719;BME280;38616;42.140;24.760;2024-02-16T06:36:30;100284.09;;;7.45;nan
52719;BME280;38616;42.140;24.760;2024-02-16T06:38:56;100280.41;;;7.22;nan
52719;BME280;38616;42.140;24.760;2024-02-16T06:41:21;100288.72;;;7.33;nan
52719;BME280;38616;42.140;24.760;2024-02-16T06:43:47;100287.25;;;7.13;nan
52719;BME280;38616;42.140;24.760;2024-02-16T06:46:15;100282.53;;;7.20;nan
52719;BME280;38616;42.140;24.760;2024-02-16T06:48:41;100275.41;;;7.14;nan
52719;BME280;38616;42.140;24.760;2024-02-16T06:51:07;100298.75;;;7.20;nan
52719;BME280;38616;42.140;24.760;2024-02-16T06:53:33;100290.25;;;7.29;nan
52719;BME280;38616;42.140;24.760;2024-02-16T06:55:58;100291.13;;;7.46;nan
52719;BME280;38616;42.140;24.760;2024-02-16T06:58:24;100287.94;;;7.49;nan
52719;BME280;38616;42.140;24.760;2024-02-16T07:00:50;100283.00;;;7.75;nan
52719;BME280;38616;42.140;24.760;2024-02-16T07:03:15;100285.78;;;7.80;nan
52719;BME280;38616;42.140;24.760;2024-02-16T07:05:41;100285.59;;;8.04;nan
52719;BME280;38616;42.140;24.760;2024-02-16T07:08:06;100283.47;;;7.89;nan
52719;BME280;38616;42.140;24.760;2024-02-16T07:10:33;100286.09;;;8.01;nan
52719;BME280;38616;42.140;24.760;2024-02-16T07:12:59;100282.19;;;7.92;nan
52719;BME280;38616;42.140;24.760;2024-02-16T07:15:27;100285.53;;;7.82;nan
52719;BME280;38616;42.140;24.760;2024-02-16T07:17:55;100287.03;;;7.90;nan
52719;BME280;38616;42.140;24.760;2024-02-16T07:20:22;100285.34;;;8.23;nan
52719;BME280;38616;42.140;24.760;2024-02-16T07:22:47;100289.66;;;8.41;nan
52719;BME280;38616;42.140;24.760;2024-02-16T07:25:15;100280.47;;;8.42;nan
52719;BME280;38616;42.140;24.760;2024-02-16T07:27:41;100295.78;;;8.14;nan
52719;BME280;38616;42.140;24.760;2024-02-16T07:30:07;100296.78;;;7.91;nan
52719;BME280;38616;42.140;24.760;2024-02-16T07:32:32;100293.72;;;8.04;nan
52719;BME280;38616;42.140;24.760;2024-02-16T07:34:59;100301.50;;;8.18;nan
52719;BME280;38616;42.140;24.760;2024-02-16T07:37:25;100294.81;;;8.20;nan
52719;BME280;38616;42.140;24.760;2024-02-16T07:39:50;100289.06;;;8.17;nan
52719;BME280;38616;42.140;24.760;2024-02-16T07:42:16;100294.69;;;8.66;nan
52719;BME280;38616;42.140;24.760;2024-02-16T07:44:42;100298.97;;;8.84;nan
52719;BME280;38616;42.140;24.760;2024-02-16T07:47:07;100298.16;;;9.06;nan
52719;BME280;38616;42.140;24.760;2024-02-16T07:49:33;100294.91;;;8.87;nan
52719;BME280;38616;42.140;24.760;2024-02-16T07:51:58;100306.53;;;9.05;nan
52719;BME280;38616;42.140;24.760;2024-02-16T07:54:24;100298.66;;;9.03;nan
52719;BME280;38616;42.140;24.760;2024-02-16T07:56:49;100299.66;;;8.75;nan
52719;BME280;38616;42.140;24.760;2024-02-16T07:59:15;100302.94;;;8.77;nan
52719;BME280;38616;42.140;24.760;2024-02-16T08:01:41;100296.69;;;8.98;nan
52719;BME280;38616;42.140;24.760;2024-02-16T08:04:09;100292.31;;;8.53;nan
52719;BME280;38616;42.140;24.760;2024-02-16T08:06:35;100299.88;;;8.51;nan
52719;BME280;38616;42.140;24.760;2024-02-16T08:09:03;100291.47;;;8.69;nan
52719;BME280;38616;42.140;24.760;2024-02-16T08:11:29;100294.03;;;9.04;nan
52719;BME280;38616;42.140;24.760;2024-02-16T08:13:55;100304.94;;;9.09;nan
52719;BME280;38616;42.140;24.760;2024-02-16T08:16:24;100309.59;;;8.91;nan
52719;BME280;38616;42.140;24.760;2024-02-16T08:18:49;100306.22;;;8.79;nan
52719;BME280;38616;42.140;24.760;2024-02-16T08:21:14;100299.09;;;8.95;nan
52719;BME280;38616;42.140;24.760;2024-02-16T08:23:40;100307.78;;;8.75;nan
52719;BME280;38616;42.140;24.760;2024-02-16T08:26:06;100297.31;;;9.06;nan
52719;BME280;38616;42.140;24.760;2024-02-16T08:28:31;100296.19;;;8.79;nan
52719;BME280;38616;42.140;24.760;2024-02-16T08:30:57;100293.66;;;9.17;nan
52719;BME280;38616;42.140;24.760;2024-02-16T08:33:22;100291.69;;;9.35;nan
52719;BME280;38616;42.140;24.760;2024-02-16T08:35:48;100302.16;;;9.04;nan
52719;BME280;38616;42.140;24.760;2024-02-16T08:38:15;100300.97;;;8.94;nan
52719;BME280;38616;42.140;24.760;2024-02-16T08:40:41;100296.31;;;8.90;nan
52719;BME280;38616;42.140;24.760;2024-02-16T08:43:06;100305.00;;;9.14;nan
52719;BME280;38616;42.140;24.760;2024-02-16T08:45:33;100303.19;;;9.20;nan
52719;BME280;38616;42.140;24.760;2024-02-16T08:47:58;100300.31;;;9.59;nan
52719;BME280;38616;42.140;24.760;2024-02-16T08:50:26;100301.16;;;9.59;nan
52719;BME280;38616;42.140;24.760;2024-02-16T08:52:52;100307.22;;;9.44;nan
52719;BME280;38616;42.140;24.760;2024-02-16T08:55:18;100308.53;;;9.37;nan
52719;BME280;38616;42.140;24.760;2024-02-16T08:57:43;100308.72;;;9.57;nan
52719;BME280;38616;42.140;24.760;2024-02-16T09:00:09;100303.13;;;9.69;nan
52719;BME280;38616;42.140;24.760;2024-02-16T09:02:35;100294.03;;;9.81;nan
52719;BME280;38616;42.140;24.760;2024-02-16T09:05:00;100297.38;;;9.93;nan
52719;BME280;38616;42.140;24.760;2024-02-16T09:07:26;100300.34;;;9.91;nan
52719;BME280;38616;42.140;24.760;2024-02-16T09:09:53;100303.94;;;9.97;nan
52719;BME280;38616;42.140;24.760;2024-02-16T09:12:19;100298.13;;;10.21;nan
52719;BME280;38616;42.140;24.760;2024-02-16T09:14:44;100293.91;;;10.03;nan
52719;BME280;38616;42.140;24.760;2024-02-16T09:17:10;100297.16;;;10.00;nan
52719;BME280;38616;42.140;24.760;2024-02-16T09:19:35;100298.78;;;10.01;nan
52719;BME280;38616;42.140;24.760;2024-02-16T09:22:01;100291.88;;;10.58;nan
52719;BME280;38616;42.140;24.760;2024-02-16T09:24:28;100297.22;;;10.96;nan
52719;BME280;38616;42.140;24.760;2024-02-16T09:26:55;100282.00;;;11.00;nan
52719;BME280;38616;42.140;24.760;2024-02-16T09:29:21;100296.13;;;10.92;nan
52719;BME280;38616;42.140;24.760;2024-02-16T09:31:49;100284.97;;;10.88;nan
52719;BME280;38616;42.140;24.760;2024-02-16T09:34:15;100276.34;;;11.17;nan
52719;BME280;38616;42.140;24.760;2024-02-16T09:36:40;100285.63;;;11.32;nan
52719;BME280;38616;42.140;24.760;2024-02-16T09:39:06;100285.41;;;11.38;nan
52719;BME280;38616;42.140;24.760;2024-02-16T09:41:34;100281.56;;;11.34;nan
52719;BME280;38616;42.140;24.760;2024-02-16T09:44:03;100281.03;;;11.32;nan
52719;BME280;38616;42.140;24.760;2024-02-16T09:46:30;100277.25;;;11.64;nan
52719;BME280;38616;42.140;24.760;2024-02-16T09:48:58;100281.63;;;11.76;nan
52719;BME280;38616;42.140;24.760;2024-02-16T09:51:26;100276.47;;;11.90;nan
52719;BME280;38616;42.140;24.760;2024-02-16T09:53:51;100272.91;;;11.79;nan
52719;BME280;38616;42.140;24.760;2024-02-16T09:56:22;100278.91;;;11.86;nan
52719;BME280;38616;42.140;24.760;2024-02-16T09:58:51;100271.81;;;11.80;nan
52719;BME280;38616;42.140;24.760;2024-02-16T10:01:26;100260.13;;;12.00;nan
52719;BME280;38616;42.140;24.760;2024-02-16T10:04:05;100257.13;;;12.22;nan
52719;BME280;38616;42.140;24.760;2024-02-16T10:06:31;100256.59;;;12.15;nan
52719;BME280;38616;42.140;24.760;2024-02-16T10:08:57;100244.31;;;12.23;nan
52719;BME280;38616;42.140;24.760;2024-02-16T10:11:25;100249.13;;;12.57;nan
52719;BME280;38616;42.140;24.760;2024-02-16T10:14:01;100244.63;;;12.87;nan
52719;BME280;38616;42.140;24.760;2024-02-16T10:16:28;100241.03;;;12.36;nan
52719;BME280;38616;42.140;24.760;2024-02-16T10:19:04;100234.66;;;12.67;nan
52719;BME280;38616;42.140;24.760;2024-02-16T10:21:30;100236.25;;;12.73;nan
52719;BME280;38616;42.140;24.760;2024-02-16T10:26:22;100225.53;;;11.85;nan
52719;BME280;38616;42.140;24.760;2024-02-16T10:28:50;100225.56;;;12.11;nan
52719;BME280;38616;42.140;24.760;2024-02-16T10:31:19;100221.44;;;11.98;nan
52719;BME280;38616;42.140;24.760;2024-02-16T10:33:47;100229.34;;;11.79;nan
52719;BME280;38616;42.140;24.760;2024-02-16T10:36:13;100225.53;;;11.95;nan
52719;BME280;38616;42.140;24.760;2024-02-16T10:38:39;100224.16;;;11.93;nan
52719;BME280;38616;42.140;24.760;2024-02-16T10:41:06;100221.44;;;11.93;nan
52719;BME280;38616;42.140;24.760;2024-02-16T10:43:33;100212.47;;;12.13;nan
52719;BME280;38616;42.140;24.760;2024-02-16T10:45:59;100223.03;;;12.40;nan
52719;BME280;38616;42.140;24.760;2024-02-16T10:48:25;100214.81;;;12.51;nan
52719;BME280;38616;42.140;24.760;2024-02-16T10:50:51;100207.81;;;12.24;nan
52719;BME280;38616;42.140;24.760;2024-02-16T10:53:25;100207.22;;;12.43;nan
52719;BME280;38616;42.140;24.760;2024-02-16T10:55:51;100205.28;;;12.43;nan
52719;BME280;38616;42.140;24.760;2024-02-16T10:58:18;100209.09;;;12.47;nan
52719;BME280;38616;42.140;24.760;2024-02-16T11:00:54;100212.28;;;12.70;nan
52719;BME280;38616;42.140;24.760;2024-02-16T11:03:26;100212.94;;;12.41;nan
52719;BME280;38616;42.140;24.760;2024-02-16T11:05:53;100201.53;;;12.34;nan
52719;BME280;38616;42.140;24.760;2024-02-16T11:08:20;100207.16;;;12.58;nan
52719;BME280;38616;42.140;24.760;2024-02-16T11:11:02;100202.47;;;12.69;nan
52719;BME280;38616;42.140;24.760;2024-02-16T11:13:34;100191.13;;;13.01;nan
52719;BME280;38616;42.140;24.760;2024-02-16T11:16:08;100193.13;;;13.30;nan
52719;BME280;38616;42.140;24.760;2024-02-16T11:18:42;100184.19;;;13.20;nan
52719;BME280;38616;42.140;24.760;2024-02-16T11:21:11;100190.63;;;13.34;nan
52719;BME280;38616;42.140;24.760;2024-02-16T11:23:39;100182.81;;;13.22;nan
52719;BME280;38616;42.140;24.760;2024-02-16T11:26:08;100186.03;;;13.29;nan
52719;BME280;38616;42.140;24.760;2024-02-16T11:28:37;100183.22;;;13.40;nan
52719;BME280;38616;42.140;24.760;2024-02-16T11:31:03;100175.19;;;13.19;nan
52719;BME280;38616;42.140;24.760;2024-02-16T11:33:30;100175.31;;;13.38;nan
52719;BME280;38616;42.140;24.760;2024-02-16T11:36:00;100174.38;;;13.58;nan
52719;BME280;38616;42.140;24.760;2024-02-16T11:38:31;100171.69;;;13.83;nan
52719;BME280;38616;42.140;24.760;2024-02-16T11:41:00;100162.84;;;13.67;nan
52719;BME280;38616;42.140;24.760;2024-02-16T11:43:26;100174.25;;;13.34;nan
52719;BME280;38616;42.140;24.760;2024-02-16T11:45:52;100169.16;;;13.62;nan
52719;BME280;38616;42.140;24.760;2024-02-16T11:48:23;100171.47;;;13.44;nan
52719;BME280;38616;42.140;24.760;2024-02-16T11:50:58;100165.38;;;13.58;nan
52719;BME280;38616;42.140;24.760;2024-02-16T11:53:23;100158.81;;;13.59;nan
52719;BME280;38616;42.140;24.760;2024-02-16T11:55:49;100161.41;;;13.74;nan
52719;BME280;38616;42.140;24.760;2024-02-16T11:58:20;100163.44;;;13.88;nan
52719;BME280;38616;42.140;24.760;2024-02-16T12:00:49;100157.41;;;13.91;nan
52719;BME280;38616;42.140;24.760;2024-02-16T12:03:27;100155.78;;;13.90;nan
52719;BME280;38616;42.140;24.760;2024-02-16T12:05:59;100158.09;;;14.02;nan
52719;BME280;38616;42.140;24.760;2024-02-16T12:08:32;100153.06;;;13.90;nan
52719;BME280;38616;42.140;24.760;2024-02-16T12:10:58;100151.91;;;13.96;nan
52719;BME280;38616;42.140;24.760;2024-02-16T12:13:24;100143.59;;;14.07;nan
52719;BME280;38616;42.140;24.760;2024-02-16T12:15:52;100150.91;;;13.87;nan
52719;BME280;38616;42.140;24.760;2024-02-16T12:18:25;100147.56;;;13.26;nan
52719;BME280;38616;42.140;24.760;2024-02-16T12:21:01;100147.34;;;13.22;nan
52719;BME280;38616;42.140;24.760;2024-02-16T12:23:36;100144.19;;;13.44;nan
52719;BME280;38616;42.140;24.760;2024-02-16T12:26:02;100140.03;;;13.82;nan
52719;BME280;38616;42.140;24.760;2024-02-16T12:28:30;100135.03;;;13.89;nan
52719;BME280;38616;42.140;24.760;2024-02-16T12:30:59;100135.69;;;14.05;nan
52719;BME280;38616;42.140;24.760;2024-02-16T12:33:25;100132.19;;;13.99;nan
52719;BME280;38616;42.140;24.760;2024-02-16T12:35:52;100128.25;;;14.11;nan
52719;BME280;38616;42.140;24.760;2024-02-16T12:38:20;100133.84;;;14.00;nan
52719;BME280;38616;42.140;24.760;2024-02-16T12:40:46;100135.72;;;14.00;nan
52719;BME280;38616;42.140;24.760;2024-02-16T12:43:12;100123.53;;;14.16;nan
52719;BME280;38616;42.140;24.760;2024-02-16T12:45:41;100122.88;;;14.25;nan
52719;BME280;38616;42.140;24.760;2024-02-16T12:48:06;100131.94;;;14.20;nan
52719;BME280;38616;42.140;24.760;2024-02-16T12:50:32;100135.53;;;14.40;nan
52719;BME280;38616;42.140;24.760;2024-02-16T12:52:58;100127.88;;;14.17;nan
52719;BME280;38616;42.140;24.760;2024-02-16T12:55:26;100138.94;;;14.07;nan
52719;BME280;38616;42.140;24.760;2024-02-16T12:57:51;100140.59;;;13.79;nan
52719;BME280;38616;42.140;24.760;2024-02-16T13:00:17;100139.78;;;13.49;nan
52719;BME280;38616;42.140;24.760;2024-02-16T13:02:43;100136.91;;;13.29;nan
52719;BME280;38616;42.140;24.760;2024-02-16T13:05:08;100122.75;;;13.62;nan
52719;BME280;38616;42.140;24.760;2024-02-16T13:07:36;100136.25;;;13.78;nan